Dundee, Illinois
Current Conditions -  °F | °C
As of 6:52 PM on Friday 24 Oct 2014 (Local Time) from KDPA Reporting Station
Few Clouds Few Clouds  
Wind Chill: 58°   Ceiling: Unl
Heat Index: 58°   Visibility: 10mi
Dew Point: 47°   Wind: 5mph
Humidity: 67%   Direction: 180°S
Pressure: 29.94"   Gusts: NA
Location:  42.1°N, 88.29°W
Report Text: KDPA 242352Z 18004KT 10SM FEW090 14/08 A2994 RMK AO2 SLP141 T01440083 10206 20144 56007
Loading
Personal Weather Stations






























Interactive Weather Map
Tropical Storm Tracking
New forecast layout! Learn more

10-Day Weather Forecast

Advertisements
Track Severe Weather on mobile